createdAt,value
2018-01-16T00:00:17.170Z,-0.30
2018-01-16T00:05:00.788Z,-0.10
2018-01-16T00:09:44.210Z,0.10
2018-01-16T00:14:27.621Z,0.20
2018-01-16T00:19:11.043Z,0.30
2018-01-16T00:23:54.408Z,0.50
2018-01-16T00:28:37.722Z,0.50
2018-01-16T00:33:21.590Z,0.80
2018-01-16T00:38:05.455Z,0.90
2018-01-16T00:42:52.508Z,1.10
2018-01-16T00:47:35.959Z,1.30
2018-01-16T00:57:34.684Z,1.50
2018-01-16T01:07:36.957Z,1.50
2018-01-16T01:12:20.700Z,1.50
2018-01-16T01:17:04.736Z,1.40
2018-01-16T01:21:49.073Z,1.40
2018-01-16T01:26:32.484Z,1.40
2018-01-16T01:31:15.922Z,1.40
2018-01-16T01:36:01.107Z,1.20
2018-01-16T01:40:44.665Z,1.20
2018-01-16T01:45:30.002Z,1.00
2018-01-16T01:50:13.654Z,0.80
2018-01-16T01:54:56.965Z,0.70
2018-01-16T01:59:41.080Z,0.60
2018-01-16T02:04:26.842Z,0.70
2018-01-16T02:14:02.756Z,0.90
2018-01-16T02:18:47.566Z,1.10
2018-01-16T02:23:34.989Z,1.10
2018-01-16T02:28:18.324Z,1.00
2018-01-16T02:33:01.618Z,0.90
2018-01-16T02:37:45.973Z,1.00
2018-01-16T02:42:30.130Z,1.10
2018-01-16T02:47:13.437Z,1.10
2018-01-16T02:51:56.806Z,1.20
2018-01-16T02:56:40.071Z,1.20
2018-01-16T03:01:23.381Z,1.30
2018-01-16T03:06:06.696Z,1.40
2018-01-16T03:10:50.054Z,1.50
2018-01-16T03:15:33.331Z,1.60
2018-01-16T03:20:17.410Z,1.80
2018-01-16T03:25:00.766Z,1.80
2018-01-16T03:29:44.103Z,1.80
2018-01-16T03:34:27.770Z,1.80
2018-01-16T03:39:11.185Z,1.80
2018-01-16T03:43:54.505Z,1.80
2018-01-16T03:48:37.844Z,1.80
2018-01-16T03:53:21.160Z,1.90
2018-01-16T03:58:04.528Z,1.80
2018-01-16T04:02:47.860Z,1.60
2018-01-16T04:07:31.203Z,1.50
2018-01-16T04:12:14.496Z,1.40
2018-01-16T04:16:57.797Z,1.40
2018-01-16T04:21:41.111Z,1.40
2018-01-16T04:26:24.426Z,1.50
2018-01-16T04:31:08.521Z,1.60
2018-01-16T04:35:51.854Z,1.50
2018-01-16T04:40:35.263Z,1.60
2018-01-16T04:45:18.672Z,1.70
2018-01-16T04:50:02.100Z,1.70
2018-01-16T04:54:45.561Z,1.70
2018-01-16T04:59:28.970Z,1.80
2018-01-16T05:04:13.191Z,1.90
2018-01-16T05:08:56.566Z,1.90
2018-01-16T05:13:39.909Z,1.80
2018-01-16T05:18:23.231Z,1.80
2018-01-16T05:23:07.366Z,1.80
2018-01-16T05:27:50.787Z,1.80
2018-01-16T05:32:34.786Z,2.20
2018-01-16T05:37:18.844Z,2.40
2018-01-16T05:42:02.150Z,2.30
2018-01-16T05:46:45.489Z,2.40
2018-01-16T05:51:28.796Z,2.50
2018-01-16T05:56:12.169Z,2.60
2018-01-16T06:00:55.486Z,2.70
2018-01-16T06:05:40.928Z,2.80
2018-01-16T06:10:24.485Z,2.70
2018-01-16T06:15:08.649Z,2.80
2018-01-16T06:19:52.654Z,2.80
2018-01-16T06:24:36.090Z,2.80
2018-01-16T06:29:19.386Z,2.90
2018-01-16T06:34:06.254Z,3.20
2018-01-16T06:38:49.698Z,3.20
2018-01-16T06:43:33.365Z,3.30
2018-01-16T06:48:19.195Z,3.40
2018-01-16T06:53:02.922Z,3.40
2018-01-16T06:57:46.498Z,3.40
2018-01-16T07:02:30.887Z,3.30
2018-01-16T07:07:15.622Z,3.30
2018-01-16T07:11:59.032Z,3.20
2018-01-16T07:16:42.465Z,3.00
2018-01-16T07:21:27.353Z,2.90
2018-01-16T07:26:11.095Z,2.90
2018-01-16T07:30:54.938Z,3.00
2018-01-16T07:35:57.666Z,3.00
2018-01-16T07:40:41.684Z,3.10
2018-01-16T07:45:25.369Z,3.20
2018-01-16T07:50:10.950Z,3.50
2018-01-16T07:54:57.899Z,3.80
2018-01-16T07:59:42.015Z,3.90
2018-01-16T08:04:32.239Z,3.70
2018-01-16T08:09:24.391Z,3.70
2018-01-16T08:14:14.722Z,3.60
2018-01-16T08:18:58.902Z,3.10
2018-01-16T08:28:55.350Z,3.00
2018-01-16T08:33:39.450Z,3.20
2018-01-16T08:38:23.023Z,3.20
2018-01-16T08:43:06.297Z,3.30
2018-01-16T08:47:50.365Z,3.40
2018-01-16T08:52:33.715Z,3.40
2018-01-16T08:57:17.827Z,3.30
2018-01-16T09:02:01.108Z,3.30
2018-01-16T09:06:44.478Z,3.40
2018-01-16T09:11:27.793Z,3.50
2018-01-16T09:16:11.107Z,3.50
2018-01-16T09:20:55.197Z,3.80
2018-01-16T09:25:38.577Z,3.80
2018-01-16T09:30:21.868Z,3.90
2018-01-16T09:35:05.293Z,3.90
2018-01-16T09:39:49.353Z,4.00
2018-01-16T09:44:32.686Z,4.00
2018-01-16T09:49:16.750Z,3.70
2018-01-16T09:54:00.048Z,3.70
2018-01-16T09:58:43.375Z,3.60
2018-01-16T10:03:26.726Z,3.40
2018-01-16T10:08:10.071Z,3.20
2018-01-16T10:12:53.405Z,2.90
2018-01-16T10:17:37.125Z,2.80
2018-01-16T10:22:20.424Z,2.50
2018-01-16T10:27:03.729Z,2.30
2018-01-16T10:31:47.043Z,2.30
2018-01-16T10:36:30.415Z,2.40
2018-01-16T10:41:13.763Z,2.60
2018-01-16T10:45:57.049Z,2.70
2018-01-16T10:50:40.382Z,2.90
2018-01-16T10:55:24.449Z,3.00
2018-01-16T11:00:07.772Z,3.00
2018-01-16T11:04:51.850Z,3.30
2018-01-16T11:09:35.188Z,3.20
2018-01-16T11:14:18.463Z,3.50
2018-01-16T11:19:01.764Z,3.60
2018-01-16T11:23:45.122Z,3.80
2018-01-16T11:28:28.426Z,3.80
2018-01-16T11:33:12.518Z,4.10
2018-01-16T11:37:55.841Z,4.10
2018-01-16T11:42:39.117Z,4.40
2018-01-16T11:47:22.434Z,4.70
2018-01-16T11:52:05.731Z,4.90
2018-01-16T11:56:49.798Z,5.50
2018-01-16T12:01:33.893Z,5.70
2018-01-16T12:06:17.209Z,5.70
2018-01-16T12:11:00.529Z,5.70
2018-01-16T12:15:43.827Z,5.60
2018-01-16T12:20:27.136Z,5.50
2018-01-16T12:25:10.455Z,5.10
2018-01-16T12:29:54.513Z,5.30
2018-01-16T12:34:38.904Z,5.40
2018-01-16T12:39:22.183Z,5.30
2018-01-16T12:44:05.531Z,5.30
2018-01-16T12:48:48.830Z,5.40
2018-01-16T12:53:32.131Z,5.50
2018-01-16T12:58:16.218Z,5.40
2018-01-16T13:02:59.589Z,5.40
2018-01-16T13:07:42.919Z,5.20
2018-01-16T13:12:26.230Z,5.20
2018-01-16T13:17:09.545Z,5.30
2018-01-16T13:21:53.623Z,5.20
2018-01-16T13:26:36.933Z,5.20
2018-01-16T13:31:20.271Z,5.10
2018-01-16T13:36:03.581Z,5.00
2018-01-16T13:40:46.895Z,4.90
2018-01-16T13:45:30.258Z,4.90
2018-01-16T13:50:13.610Z,4.80
2018-01-16T13:54:56.935Z,4.80
2018-01-16T13:59:40.245Z,4.70
2018-01-16T14:04:23.646Z,4.70
2018-01-16T14:09:06.925Z,4.80
2018-01-16T14:13:50.245Z,4.90
2018-01-16T14:18:34.322Z,4.40
2018-01-16T14:23:17.848Z,4.40
2018-01-16T14:28:01.173Z,3.40
2018-01-16T14:32:44.788Z,2.90
2018-01-16T14:37:28.052Z,2.70
2018-01-16T14:42:11.363Z,2.60
2018-01-16T14:46:54.662Z,2.50
2018-01-16T14:51:38.028Z,2.40
2018-01-16T14:56:21.308Z,2.40
2018-01-16T15:01:04.650Z,2.30
2018-01-16T15:05:48.760Z,2.40
2018-01-16T15:10:32.082Z,2.40
2018-01-16T15:15:15.444Z,2.40
2018-01-16T15:19:58.776Z,2.50
2018-01-16T15:24:42.273Z,2.70
2018-01-16T15:29:25.563Z,2.20
2018-01-16T15:34:30.117Z,1.70
2018-01-16T15:39:13.464Z,1.20
2018-01-16T15:43:56.787Z,1.10
2018-01-16T15:48:40.146Z,1.10
2018-01-16T15:53:23.431Z,1.10
2018-01-16T15:58:06.796Z,1.10
2018-01-16T16:02:50.154Z,1.10
2018-01-16T16:07:33.537Z,1.10
2018-01-16T16:12:17.662Z,1.50
2018-01-16T16:17:00.998Z,1.50
2018-01-16T16:21:44.352Z,1.60
2018-01-16T16:26:27.703Z,1.60
2018-01-16T16:31:11.017Z,1.60
2018-01-16T16:35:54.327Z,1.70
2018-01-16T16:40:37.681Z,1.70
2018-01-16T16:45:21.053Z,1.70
2018-01-16T16:50:04.343Z,1.80
2018-01-16T16:54:47.712Z,1.80
2018-01-16T16:59:31.082Z,1.90
2018-01-16T17:04:14.444Z,1.90
2018-01-16T17:08:57.801Z,1.90
2018-01-16T17:13:41.894Z,1.80
2018-01-16T17:18:25.188Z,1.80
2018-01-16T17:23:09.327Z,1.60
2018-01-16T17:27:52.667Z,1.60
2018-01-16T17:32:35.950Z,1.50
2018-01-16T17:37:19.286Z,1.60
2018-01-16T17:42:02.590Z,1.60
2018-01-16T17:46:45.900Z,1.60
2018-01-16T17:51:29.311Z,1.50
2018-01-16T17:56:12.636Z,1.40
2018-01-16T18:00:56.789Z,1.40
2018-01-16T18:05:40.057Z,1.40
2018-01-16T18:10:23.355Z,1.40
2018-01-16T18:15:07.479Z,1.40
2018-01-16T18:19:50.855Z,1.30
2018-01-16T18:24:34.187Z,1.50
2018-01-16T18:29:17.541Z,1.50
2018-01-16T18:34:00.828Z,1.50
2018-01-16T18:38:44.205Z,1.50
2018-01-16T18:43:27.555Z,1.60
2018-01-16T18:48:11.667Z,1.50
2018-01-16T18:52:55.007Z,1.50
2018-01-16T18:57:38.327Z,1.50
2018-01-16T19:02:21.683Z,1.50
2018-01-16T19:07:05.036Z,1.50
2018-01-16T19:11:48.390Z,1.50
2018-01-16T19:16:31.739Z,1.50
2018-01-16T19:21:15.099Z,1.50
2018-01-16T19:25:59.359Z,1.50
2018-01-16T19:30:42.789Z,1.50
2018-01-16T19:35:26.096Z,1.50
2018-01-16T19:40:10.633Z,1.50
2018-01-16T19:44:54.185Z,1.60
2018-01-16T19:49:38.261Z,1.50
2018-01-16T19:54:21.549Z,1.40
2018-01-16T19:59:04.903Z,1.40
2018-01-16T20:03:49.075Z,1.40
2018-01-16T20:08:32.406Z,1.40
2018-01-16T20:13:16.500Z,1.30
2018-01-16T20:17:59.826Z,1.30
2018-01-16T20:22:43.176Z,1.30
2018-01-16T20:27:26.493Z,1.40
2018-01-16T20:32:09.836Z,1.50
2018-01-16T20:36:53.865Z,1.40
2018-01-16T20:41:37.210Z,1.40
2018-01-16T20:46:21.298Z,1.30
2018-01-16T20:51:04.629Z,1.30
2018-01-16T20:55:47.944Z,1.30
2018-01-16T21:00:32.025Z,1.20
2018-01-16T21:05:16.123Z,1.30
2018-01-16T21:09:59.497Z,1.30
2018-01-16T21:14:42.796Z,1.30
2018-01-16T21:19:26.199Z,1.30
2018-01-16T21:24:09.558Z,1.30
2018-01-16T21:28:52.853Z,1.20
2018-01-16T21:33:36.166Z,1.10
2018-01-16T21:38:19.634Z,1.10
2018-01-16T21:43:02.951Z,1.10
2018-01-16T21:47:46.387Z,1.20
2018-01-16T21:52:29.664Z,1.20
2018-01-16T21:57:12.958Z,1.20
2018-01-16T22:01:56.310Z,1.10
2018-01-16T22:06:40.460Z,1.00
2018-01-16T22:11:23.782Z,1.00
2018-01-16T22:16:07.093Z,1.00
2018-01-16T22:20:51.199Z,0.90
2018-01-16T22:25:34.538Z,0.90
2018-01-16T22:30:17.882Z,0.90
2018-01-16T22:35:01.183Z,1.00
2018-01-16T22:39:45.617Z,1.10
2018-01-16T22:44:28.918Z,1.10
2018-01-16T22:49:12.269Z,1.10
2018-01-16T22:53:55.624Z,1.20
2018-01-16T22:58:38.898Z,1.20
2018-01-16T23:03:22.414Z,1.30
2018-01-16T23:08:05.847Z,1.20
2018-01-16T23:12:49.133Z,1.30
2018-01-16T23:17:32.462Z,1.30
2018-01-16T23:22:15.838Z,1.20
2018-01-16T23:26:59.195Z,1.20
2018-01-16T23:31:42.515Z,1.20
2018-01-16T23:36:25.789Z,1.10
2018-01-16T23:41:09.168Z,0.90
2018-01-16T23:45:53.286Z,0.90
2018-01-16T23:50:36.681Z,0.90
2018-01-16T23:55:20.822Z,0.90
